createdAt,value
2024-03-12T00:01:07.561Z,95.73
2024-03-12T00:03:07.889Z,95.83
2024-03-12T00:05:08.217Z,95.83
2024-03-12T00:07:08.574Z,95.83
2024-03-12T00:09:08.907Z,95.73
2024-03-12T00:11:09.663Z,95.83
2024-03-12T00:13:10.139Z,95.83
2024-03-12T00:15:10.429Z,95.83
2024-03-12T00:17:10.728Z,95.83
2024-03-12T00:19:11.145Z,95.73
2024-03-12T00:21:11.473Z,95.83
2024-03-12T00:23:11.758Z,95.83
2024-03-12T00:25:12.058Z,95.83
2024-03-12T00:27:12.364Z,95.83
2024-03-12T00:29:12.661Z,95.83
2024-03-12T00:31:12.973Z,95.94
2024-03-12T00:33:14.203Z,95.83
2024-03-12T00:35:14.468Z,95.83
2024-03-12T00:37:14.798Z,95.83
2024-03-12T00:39:15.066Z,95.73
2024-03-12T00:41:15.437Z,95.83
2024-03-12T00:43:15.866Z,95.83
2024-03-12T00:45:16.154Z,95.83
2024-03-12T00:47:16.489Z,95.83
2024-03-12T00:49:16.761Z,95.83
2024-03-12T00:51:17.051Z,95.83
2024-03-12T00:53:17.399Z,95.83
2024-03-12T00:55:17.755Z,95.73
2024-03-12T00:57:18.078Z,95.73
2024-03-12T00:59:18.358Z,95.73
2024-03-12T01:01:18.763Z,95.83
2024-03-12T01:03:19.084Z,95.83
2024-03-12T01:05:19.372Z,95.83
2024-03-12T01:07:19.643Z,95.83
2024-03-12T01:09:19.993Z,95.87
2024-03-12T01:11:20.291Z,95.98
2024-03-12T01:13:20.527Z,95.98
2024-03-12T01:15:20.854Z,95.98
2024-03-12T01:17:21.130Z,95.87
2024-03-12T01:19:21.401Z,95.98
2024-03-12T01:21:21.833Z,96.08
2024-03-12T01:23:22.244Z,96.02
2024-03-12T01:25:22.548Z,96.12
2024-03-12T01:27:22.833Z,96.02
2024-03-12T01:29:23.116Z,96.02
2024-03-12T01:31:23.474Z,96.12
2024-03-12T01:33:23.740Z,96.12
2024-03-12T01:35:23.988Z,96.23
2024-03-12T01:37:24.300Z,96.17
2024-03-12T01:39:24.790Z,96.17
2024-03-12T01:41:25.113Z,96.21
2024-03-12T01:43:25.377Z,96.21
2024-03-12T01:45:25.898Z,96.26
2024-03-12T01:47:26.313Z,96.26
2024-03-12T01:49:26.587Z,96.36
2024-03-12T01:51:26.900Z,96.47
2024-03-12T01:53:27.188Z,96.51
2024-03-12T01:55:27.516Z,96.51
2024-03-12T01:57:27.838Z,96.51
2024-03-12T01:59:28.124Z,96.51
2024-03-12T02:01:28.557Z,96.61
2024-03-12T02:03:28.870Z,96.51
2024-03-12T02:05:29.204Z,96.51
2024-03-12T02:07:29.776Z,96.41
2024-03-12T02:09:30.219Z,96.41
2024-03-12T02:11:30.600Z,96.36
2024-03-12T02:13:32.794Z,96.57
2024-03-12T02:15:33.107Z,96.36
2024-03-12T02:17:33.588Z,96.26
2024-03-12T02:20:19.380Z,96.36
2024-03-12T02:22:19.741Z,96.36
2024-03-12T02:24:20.170Z,96.36
2024-03-12T02:26:20.610Z,96.26
2024-03-12T02:28:21.045Z,96.26
2024-03-12T02:30:21.509Z,96.26
2024-03-12T02:32:21.987Z,96.36
2024-03-12T02:34:22.444Z,96.36
2024-03-12T02:36:22.809Z,96.36
2024-03-12T02:38:23.183Z,96.36
2024-03-12T02:40:23.520Z,96.26
2024-03-12T02:42:23.925Z,96.36
2024-03-12T02:44:24.257Z,96.36
2024-03-12T02:46:24.655Z,96.36
2024-03-12T02:48:25.001Z,96.36
2024-03-12T02:50:25.293Z,96.36
2024-03-12T02:52:25.577Z,96.36
2024-03-12T02:54:25.971Z,96.36
2024-03-12T02:56:26.282Z,96.26
2024-03-12T02:58:26.677Z,96.36
2024-03-12T03:00:27.153Z,96.36
2024-03-12T03:02:27.456Z,96.31
2024-03-12T03:04:27.953Z,96.31
2024-03-12T03:06:28.294Z,96.21
2024-03-12T03:08:28.626Z,96.17
2024-03-12T03:10:28.990Z,96.27
2024-03-12T03:12:29.277Z,96.17
2024-03-12T03:14:29.640Z,96.17
2024-03-12T03:16:29.901Z,96.17
2024-03-12T03:18:30.247Z,96.17
2024-03-12T03:20:30.527Z,96.17
2024-03-12T03:22:30.817Z,96.17
2024-03-12T03:24:31.160Z,96.12
2024-03-12T03:26:31.453Z,96.02
2024-03-12T03:28:31.725Z,96.02
2024-03-12T03:30:32.073Z,96.02
2024-03-12T03:32:32.369Z,96.08
2024-03-12T03:34:32.678Z,95.98
2024-03-12T03:36:33.009Z,95.98
2024-03-12T03:38:33.356Z,95.98
2024-03-12T03:40:33.761Z,95.98
2024-03-12T03:42:34.226Z,95.94
2024-03-12T03:44:34.551Z,95.83
2024-03-12T03:46:34.876Z,95.83
2024-03-12T03:48:35.578Z,95.83
2024-03-12T03:50:35.890Z,95.83
2024-03-12T03:52:36.204Z,95.73
2024-03-12T03:54:36.576Z,95.83
2024-03-12T03:56:37.045Z,95.83
2024-03-12T03:58:37.367Z,95.73
2024-03-12T04:00:37.763Z,95.73
2024-03-12T04:02:38.122Z,95.73
2024-03-12T04:04:38.377Z,95.68
2024-03-12T04:06:38.799Z,95.83
2024-03-12T04:08:39.095Z,95.68
2024-03-12T04:10:39.403Z,95.83
2024-03-12T04:12:39.767Z,95.68
2024-03-12T04:14:40.040Z,95.78
2024-03-12T04:16:40.315Z,95.78
2024-03-12T04:18:40.731Z,95.78
2024-03-12T04:20:41.082Z,95.78
2024-03-12T04:22:41.440Z,95.83
2024-03-12T04:24:41.825Z,95.83
2024-03-12T04:26:42.160Z,95.83
2024-03-12T04:28:42.572Z,95.83
2024-03-12T04:30:42.921Z,95.94
2024-03-12T04:32:43.377Z,95.94
2024-03-12T04:34:43.696Z,95.89
2024-03-12T04:36:44.146Z,95.89
2024-03-12T04:38:44.516Z,95.89
2024-03-12T04:40:44.761Z,95.89
2024-03-12T04:42:45.326Z,95.78
2024-03-12T04:44:45.624Z,95.74
2024-03-12T04:46:45.936Z,95.84
2024-03-12T04:48:46.491Z,95.74
2024-03-12T04:50:46.822Z,95.84
2024-03-12T04:52:47.112Z,95.74
2024-03-12T04:54:47.519Z,95.70
2024-03-12T04:56:47.781Z,95.70
2024-03-12T04:58:48.084Z,95.70
2024-03-12T05:00:48.469Z,95.65
2024-03-12T05:02:48.850Z,95.55
2024-03-12T05:04:49.110Z,95.55
2024-03-12T05:06:49.604Z,95.55
2024-03-12T05:08:49.910Z,95.40
2024-03-12T05:10:50.279Z,95.40
2024-03-12T05:12:50.622Z,95.36
2024-03-12T05:14:50.907Z,95.36
2024-03-12T05:16:51.238Z,95.36
2024-03-12T05:18:51.727Z,95.36
2024-03-12T05:20:52.526Z,95.10
2024-03-12T05:22:52.880Z,95.21
2024-03-12T05:24:53.408Z,95.21
2024-03-12T05:26:53.856Z,95.10
2024-03-12T05:28:54.256Z,95.10
2024-03-12T05:30:54.626Z,95.06
2024-03-12T05:32:55.571Z,95.17
2024-03-12T05:34:56.140Z,95.06
2024-03-12T05:36:56.558Z,95.06
2024-03-12T05:38:56.825Z,95.06
2024-03-12T05:40:57.275Z,94.96
2024-03-12T05:43:39.832Z,94.96
2024-03-12T05:45:40.220Z,94.96
2024-03-12T05:48:22.995Z,95.02
2024-03-12T05:50:23.371Z,94.92
2024-03-12T05:52:23.723Z,95.02
2024-03-12T05:54:24.047Z,95.12
2024-03-12T05:56:24.291Z,95.02
2024-03-12T05:58:24.626Z,95.02
2024-03-12T06:00:24.892Z,95.23
2024-03-12T06:02:25.222Z,95.23
2024-03-12T06:04:25.550Z,95.12
2024-03-12T06:06:25.836Z,95.23
2024-03-12T06:08:26.134Z,95.23
2024-03-12T06:10:31.402Z,95.12
2024-03-12T06:12:31.858Z,95.23
2024-03-12T06:14:32.262Z,95.12
2024-03-12T06:16:32.578Z,95.12
2024-03-12T06:18:32.927Z,95.12
2024-03-12T06:20:33.213Z,95.23
2024-03-12T06:22:33.589Z,95.23
2024-03-12T06:24:34.036Z,95.33
2024-03-12T06:26:34.774Z,95.23
2024-03-12T06:28:35.596Z,95.23
2024-03-12T06:30:35.914Z,95.12
2024-03-12T06:32:36.317Z,95.23
2024-03-12T06:34:36.647Z,95.33
2024-03-12T06:36:36.942Z,95.23
2024-03-12T06:38:37.292Z,95.33
2024-03-12T06:40:37.525Z,95.28
2024-03-12T06:42:37.857Z,95.33
2024-03-12T06:44:38.135Z,95.43
2024-03-12T06:46:38.446Z,95.33
2024-03-12T06:48:38.776Z,95.33
2024-03-12T06:50:39.055Z,95.39
2024-03-12T06:52:39.356Z,95.39
2024-03-12T06:54:39.665Z,95.39
2024-03-12T06:56:39.949Z,95.28
2024-03-12T06:58:40.290Z,95.28
2024-03-12T07:00:40.671Z,95.39
2024-03-12T07:02:40.911Z,95.39
2024-03-12T07:04:41.280Z,95.28
2024-03-12T07:06:41.537Z,95.28
2024-03-12T07:08:41.869Z,95.28
2024-03-12T07:10:42.313Z,95.28
2024-03-12T07:12:42.742Z,95.39
2024-03-12T07:14:43.022Z,95.18
2024-03-12T07:16:43.323Z,95.28
2024-03-12T07:18:43.640Z,95.18
2024-03-12T07:20:43.921Z,95.28
2024-03-12T07:22:46.173Z,95.28
2024-03-12T07:24:47.156Z,95.18
2024-03-12T07:26:47.449Z,95.28
2024-03-12T07:28:47.725Z,95.34
2024-03-12T07:30:48.015Z,95.28
2024-03-12T07:32:48.511Z,95.28
2024-03-12T07:34:48.827Z,95.24
2024-03-12T07:36:49.221Z,95.34
2024-03-12T07:38:49.514Z,95.14
2024-03-12T07:40:49.804Z,95.14
2024-03-12T07:42:50.209Z,95.20
2024-03-12T07:44:50.514Z,95.20
2024-03-12T07:46:50.831Z,95.20
2024-03-12T07:48:51.252Z,95.20
2024-03-12T07:50:51.595Z,95.30
2024-03-12T07:52:51.889Z,95.20
2024-03-12T07:54:52.306Z,95.09
2024-03-12T07:56:52.601Z,95.20
2024-03-12T07:58:52.914Z,95.09
2024-03-12T08:00:53.187Z,95.05
2024-03-12T08:02:53.738Z,95.05
2024-03-12T08:04:54.098Z,95.15
2024-03-12T08:06:54.640Z,95.05
2024-03-12T08:08:55.058Z,95.05
2024-03-12T08:10:55.510Z,95.05
2024-03-12T08:12:55.919Z,95.05
2024-03-12T08:14:56.422Z,95.01
2024-03-12T08:16:56.874Z,95.15
2024-03-12T08:18:57.317Z,95.05
2024-03-12T08:20:57.885Z,95.01
2024-03-12T08:22:58.311Z,95.01
2024-03-12T08:24:58.851Z,95.01
2024-03-12T08:26:59.176Z,95.01
2024-03-12T08:28:59.629Z,95.01
2024-03-12T08:31:05.085Z,94.96
2024-03-12T08:33:05.297Z,94.96
2024-03-12T08:35:05.737Z,94.85
2024-03-12T08:37:06.148Z,94.76
2024-03-12T08:39:06.518Z,94.76
2024-03-12T08:41:06.941Z,94.76
2024-03-12T08:43:09.079Z,94.76
2024-03-12T08:45:09.761Z,94.65
2024-03-12T08:47:51.659Z,94.65
2024-03-12T08:49:51.985Z,94.65
2024-03-12T08:51:52.278Z,94.76
2024-03-12T08:53:52.664Z,94.65
2024-03-12T08:55:53.159Z,94.76
2024-03-12T08:57:53.535Z,94.85
2024-03-12T08:59:54.067Z,94.65
2024-03-12T09:01:54.460Z,94.55
2024-03-12T09:03:54.860Z,94.76
2024-03-12T09:05:55.207Z,94.65
2024-03-12T09:07:56.576Z,94.76
2024-03-12T09:09:56.931Z,94.61
2024-03-12T09:11:57.358Z,94.71
2024-03-12T09:13:57.768Z,94.71
2024-03-12T09:15:58.078Z,94.61
2024-03-12T09:17:58.526Z,94.71
2024-03-12T09:19:59.195Z,94.51
2024-03-12T09:21:59.767Z,94.51
2024-03-12T09:24:02.261Z,94.51
2024-03-12T09:26:03.231Z,94.51
2024-03-12T09:28:03.871Z,94.61
2024-03-12T09:30:04.363Z,94.71
2024-03-12T09:32:04.782Z,94.61
2024-03-12T09:34:05.236Z,94.61
2024-03-12T09:36:05.667Z,94.55
2024-03-12T09:38:06.105Z,94.61
2024-03-12T09:40:06.899Z,94.71
2024-03-12T09:42:07.338Z,94.71
2024-03-12T09:44:07.998Z,94.61
2024-03-12T09:46:08.571Z,94.71
2024-03-12T09:48:09.130Z,94.92
2024-03-12T09:50:09.639Z,94.61
2024-03-12T09:52:10.129Z,94.71
2024-03-12T09:54:10.751Z,94.61
2024-03-12T09:56:11.128Z,94.71
2024-03-12T09:58:11.778Z,94.61
2024-03-12T10:00:12.334Z,94.56
2024-03-12T10:02:12.958Z,94.67
2024-03-12T10:04:13.377Z,94.56
2024-03-12T10:06:13.738Z,94.67
2024-03-12T10:08:14.051Z,94.56
2024-03-12T10:10:14.393Z,94.62
2024-03-12T10:12:14.700Z,94.42
2024-03-12T10:14:14.964Z,94.42
2024-03-12T10:16:15.377Z,94.42
2024-03-12T10:18:15.690Z,94.52
2024-03-12T10:20:15.976Z,94.36
2024-03-12T10:22:16.298Z,94.56
2024-03-12T10:24:16.606Z,94.56
2024-03-12T10:26:16.960Z,94.56
2024-03-12T10:28:17.289Z,94.56
2024-03-12T10:30:17.607Z,94.56
2024-03-12T10:32:17.910Z,94.46
2024-03-12T10:34:18.352Z,94.42
2024-03-12T10:36:18.719Z,94.42
2024-03-12T10:38:18.996Z,94.42
2024-03-12T10:40:19.437Z,94.27
2024-03-12T10:42:24.600Z,94.27
2024-03-12T10:44:24.844Z,94.02
2024-03-12T10:46:25.323Z,93.82
2024-03-12T10:48:25.618Z,93.88
2024-03-12T10:50:25.944Z,93.67
2024-03-12T10:52:26.240Z,93.77
2024-03-12T10:54:26.564Z,93.43
2024-03-12T10:56:28.813Z,93.01
2024-03-12T10:58:29.104Z,93.12
2024-03-12T11:00:29.451Z,92.91
2024-03-12T11:02:29.904Z,92.50
2024-03-12T11:04:30.128Z,92.40
2024-03-12T11:06:30.548Z,92.55
2024-03-12T11:08:30.871Z,92.71
2024-03-12T11:10:31.887Z,92.30
2024-03-12T11:12:32.256Z,92.25
2024-03-12T11:14:32.539Z,91.80
2024-03-12T11:16:32.860Z,90.27
2024-03-12T11:18:33.200Z,90.78
2024-03-12T11:20:33.503Z,90.11
2024-03-12T11:22:33.883Z,90.58
2024-03-12T11:24:34.207Z,90.68
2024-03-12T11:26:36.414Z,90.58
2024-03-12T11:28:37.100Z,90.64
2024-03-12T11:30:37.441Z,90.53
2024-03-12T11:32:37.732Z,89.98
2024-03-12T11:34:38.080Z,88.85
2024-03-12T11:36:38.384Z,89.47
2024-03-12T11:38:38.787Z,88.90
2024-03-12T11:40:39.568Z,89.51
2024-03-12T11:42:40.083Z,89.56
2024-03-12T11:44:40.451Z,92.52
2024-03-12T11:46:40.759Z,93.07
2024-03-12T11:48:41.025Z,93.84
2024-03-12T11:50:41.312Z,94.02
2024-03-12T11:52:41.586Z,93.86
2024-03-12T11:54:42.210Z,93.90
2024-03-12T11:56:42.627Z,93.85
2024-03-12T11:58:42.960Z,94.40
2024-03-12T12:00:43.325Z,94.76
2024-03-12T12:02:43.628Z,95.10
2024-03-12T12:04:44.026Z,95.05
2024-03-12T12:06:44.386Z,95.25
2024-03-12T12:08:53.076Z,95.20
2024-03-12T12:10:49.908Z,95.05
2024-03-12T12:12:50.279Z,95.05
2024-03-12T12:14:50.878Z,95.25
2024-03-12T12:16:54.052Z,95.05
2024-03-12T12:18:54.674Z,95.05
2024-03-12T12:20:54.952Z,94.90
2024-03-12T12:22:55.216Z,95.10
2024-03-12T12:24:55.554Z,95.01
2024-03-12T12:26:55.940Z,95.01
2024-03-12T12:28:56.188Z,95.01
2024-03-12T12:30:56.571Z,94.90
2024-03-12T12:32:56.935Z,95.10
2024-03-12T12:34:57.207Z,94.90
2024-03-12T12:37:54.303Z,95.01
2024-03-12T12:39:54.904Z,95.10
2024-03-12T12:41:57.265Z,94.90
2024-03-12T12:43:57.914Z,95.05
2024-03-12T12:45:58.700Z,94.95
2024-03-12T12:47:59.109Z,95.05
2024-03-12T12:50:40.992Z,94.95
2024-03-12T12:52:41.329Z,95.05
2024-03-12T12:54:43.121Z,95.25
2024-03-12T12:56:44.424Z,94.95
2024-03-12T12:58:44.983Z,95.05
2024-03-12T13:00:50.235Z,95.15
2024-03-12T13:02:50.597Z,95.01
2024-03-12T13:04:50.877Z,95.01
2024-03-12T13:06:51.505Z,95.01
2024-03-12T13:08:51.782Z,94.96
2024-03-12T13:10:52.171Z,94.96
2024-03-12T13:12:52.446Z,94.96
2024-03-12T13:14:52.787Z,95.06
2024-03-12T13:16:53.123Z,94.85
2024-03-12T13:18:53.726Z,95.06
2024-03-12T13:20:58.623Z,94.85
2024-03-12T13:22:58.942Z,94.85
2024-03-12T13:24:59.232Z,94.96
2024-03-12T13:26:59.667Z,95.27
2024-03-12T13:29:00.058Z,94.85
2024-03-12T13:31:00.409Z,95.02
2024-03-12T13:33:00.776Z,94.92
2024-03-12T13:35:01.065Z,95.12
2024-03-12T13:37:01.339Z,94.46
2024-03-12T13:39:01.679Z,94.67
2024-03-12T13:41:02.173Z,94.46
2024-03-12T13:43:02.513Z,94.52
2024-03-12T13:45:02.818Z,94.62
2024-03-12T13:47:03.203Z,94.58
2024-03-12T13:49:03.580Z,94.58
2024-03-12T13:51:03.905Z,94.58
2024-03-12T13:53:04.194Z,94.37
2024-03-12T13:55:04.538Z,94.48
2024-03-12T13:57:04.771Z,94.48
2024-03-12T13:59:06.209Z,94.58
2024-03-12T14:01:06.714Z,94.58
2024-03-12T14:03:07.013Z,94.68
2024-03-12T14:05:07.350Z,94.58
2024-03-12T14:07:07.690Z,94.68
2024-03-12T14:09:08.001Z,94.73
2024-03-12T14:11:08.284Z,94.77
2024-03-12T14:13:08.582Z,94.77
2024-03-12T14:15:08.891Z,94.77
2024-03-12T14:17:09.185Z,95.02
2024-03-12T14:19:09.546Z,94.87
2024-03-12T14:21:14.690Z,94.77
2024-03-12T14:23:14.935Z,94.87
2024-03-12T14:25:15.331Z,94.87
2024-03-12T14:27:15.641Z,94.98
2024-03-12T14:29:15.919Z,94.77
2024-03-12T14:31:16.458Z,94.92
2024-03-12T14:33:16.819Z,94.81
2024-03-12T14:35:17.065Z,94.81
2024-03-12T14:37:17.496Z,94.81
2024-03-12T14:39:17.771Z,95.02
2024-03-12T14:41:18.166Z,94.81
2024-03-12T14:43:18.584Z,94.81
2024-03-12T14:45:18.936Z,94.81
2024-03-12T14:47:21.137Z,94.81
2024-03-12T14:49:21.699Z,94.81
2024-03-12T14:51:22.033Z,94.96
2024-03-12T14:53:22.648Z,94.96
2024-03-12T14:55:23.106Z,94.85
2024-03-12T14:57:23.460Z,94.85
2024-03-12T14:59:23.745Z,94.96
2024-03-12T15:01:24.184Z,94.85
2024-03-12T15:03:24.582Z,94.85
2024-03-12T15:05:24.978Z,94.85
2024-03-12T15:07:25.301Z,94.96
2024-03-12T15:09:25.573Z,94.85
2024-03-12T15:11:26.055Z,94.85
2024-03-12T15:13:27.163Z,94.85
2024-03-12T15:15:27.445Z,94.96
2024-03-12T15:17:27.771Z,94.81
2024-03-12T15:19:28.087Z,94.81
2024-03-12T15:21:28.386Z,94.92
2024-03-12T15:23:28.760Z,95.23
2024-03-12T15:25:29.423Z,94.92
2024-03-12T15:27:29.802Z,95.02
2024-03-12T15:29:30.182Z,94.51
2024-03-12T15:31:30.664Z,94.30
2024-03-12T15:33:31.032Z,94.10
2024-03-12T15:35:31.313Z,94.51
2024-03-12T15:37:31.604Z,93.89
2024-03-12T15:39:32.128Z,93.48
2024-03-12T15:41:32.518Z,93.68
2024-03-12T15:43:32.791Z,93.79
2024-03-12T15:45:33.138Z,93.79
2024-03-12T15:47:33.393Z,93.79
2024-03-12T15:49:33.784Z,93.79
2024-03-12T15:51:34.577Z,93.68
2024-03-12T15:55:06.668Z,93.79
2024-03-12T15:57:07.014Z,93.59
2024-03-12T15:59:08.359Z,93.64
2024-03-12T16:01:08.823Z,93.64
2024-03-12T16:03:09.184Z,93.13
2024-03-12T16:05:09.582Z,93.54
2024-03-12T16:07:10.386Z,93.44
2024-03-12T16:09:10.843Z,93.23
2024-03-12T16:11:11.356Z,93.23
2024-03-12T16:13:11.761Z,93.64
2024-03-12T16:15:12.331Z,93.95
2024-03-12T16:17:13.223Z,94.36
2024-03-12T16:19:13.866Z,94.10
2024-03-12T16:21:14.220Z,94.40
2024-03-12T16:23:14.579Z,93.79
2024-03-12T16:25:15.012Z,94.20
2024-03-12T16:27:15.353Z,94.30
2024-03-12T16:29:15.707Z,94.10
2024-03-12T16:31:16.051Z,94.20
2024-03-12T16:33:16.393Z,94.20
2024-03-12T16:35:17.098Z,93.99
2024-03-12T16:37:17.578Z,93.99
2024-03-12T16:39:17.920Z,94.30
2024-03-12T16:41:18.235Z,94.40
2024-03-12T16:43:18.609Z,94.61
2024-03-12T16:45:18.993Z,94.51
2024-03-12T16:47:19.389Z,94.76
2024-03-12T16:49:19.728Z,94.76
2024-03-12T16:51:20.054Z,94.76
2024-03-12T16:53:20.403Z,94.76
2024-03-12T16:55:20.950Z,94.85
2024-03-12T16:57:21.293Z,94.76
2024-03-12T16:59:21.603Z,94.76
2024-03-12T17:01:22.091Z,94.76
2024-03-12T17:04:13.218Z,95.06
2024-03-12T17:06:13.778Z,94.80
2024-03-12T17:08:14.192Z,94.90
2024-03-12T17:10:14.770Z,94.90
2024-03-12T17:12:15.416Z,95.01
2024-03-12T17:14:22.723Z,94.90
2024-03-12T17:16:21.311Z,95.01
2024-03-12T17:18:21.993Z,95.01
2024-03-12T17:20:22.461Z,95.01
2024-03-12T17:22:22.778Z,95.01
2024-03-12T17:24:23.155Z,94.90
2024-03-12T17:26:23.450Z,95.01
2024-03-12T17:28:23.980Z,95.10
2024-03-12T17:30:24.333Z,95.01
2024-03-12T17:32:24.701Z,94.90
2024-03-12T17:34:25.008Z,95.01
2024-03-12T17:36:25.311Z,95.01
2024-03-12T17:38:25.569Z,95.05
2024-03-12T17:40:26.027Z,95.05
2024-03-12T17:42:26.508Z,95.05
2024-03-12T17:44:26.834Z,95.15
2024-03-12T17:46:27.194Z,95.05
2024-03-12T17:48:27.462Z,95.05
2024-03-12T17:50:27.761Z,95.15
2024-03-12T17:52:28.103Z,95.05
2024-03-12T17:54:28.416Z,95.05
2024-03-12T17:57:12.426Z,95.15
2024-03-12T17:59:14.676Z,95.15
2024-03-12T18:01:17.048Z,95.05
2024-03-12T18:03:17.372Z,95.15
2024-03-12T18:05:17.650Z,95.05
2024-03-12T18:07:18.028Z,95.05
2024-03-12T18:09:18.422Z,95.15
2024-03-12T18:11:18.759Z,95.20
2024-03-12T18:13:24.624Z,95.20
2024-03-12T18:15:25.885Z,95.09
2024-03-12T18:18:13.143Z,94.95
2024-03-12T18:20:13.439Z,95.05
2024-03-12T18:22:13.798Z,95.15
2024-03-12T18:24:14.128Z,95.05
2024-03-12T18:26:15.043Z,95.09
2024-03-12T18:28:15.428Z,95.05
2024-03-12T18:30:15.881Z,95.09
2024-03-12T18:32:16.235Z,95.09
2024-03-12T18:34:16.706Z,95.09
2024-03-12T18:36:16.989Z,94.99
2024-03-12T18:38:17.303Z,94.99
2024-03-12T18:40:17.693Z,94.99
2024-03-12T18:42:17.975Z,94.99
2024-03-12T18:44:18.308Z,95.09
2024-03-12T18:46:18.585Z,95.09
2024-03-12T18:48:18.901Z,95.09
2024-03-12T18:50:19.225Z,95.20
2024-03-12T18:52:19.617Z,95.30
2024-03-12T18:54:19.983Z,95.34
2024-03-12T18:56:20.316Z,95.30
2024-03-12T18:58:20.783Z,95.34
2024-03-12T19:02:21.682Z,95.45
2024-03-12T19:04:22.095Z,95.55
2024-03-12T19:06:27.064Z,95.55
2024-03-12T19:08:27.574Z,95.65
2024-03-12T19:10:27.947Z,95.65
2024-03-12T19:12:28.271Z,95.75
2024-03-12T19:14:28.558Z,95.75
2024-03-12T19:16:28.930Z,95.75
2024-03-12T19:18:29.368Z,95.75
2024-03-12T19:20:29.612Z,95.75
2024-03-12T19:22:30.214Z,95.86
2024-03-12T19:24:30.624Z,95.90
2024-03-12T19:26:30.912Z,95.90
2024-03-12T19:28:31.318Z,95.86
2024-03-12T19:30:31.650Z,95.90
2024-03-12T19:32:32.672Z,96.00
2024-03-12T19:34:35.664Z,95.90
2024-03-12T19:36:36.616Z,95.96
2024-03-12T19:38:37.015Z,96.00
2024-03-12T19:40:37.621Z,95.86
2024-03-12T19:42:38.163Z,96.00
2024-03-12T19:45:20.859Z,95.86
2024-03-12T19:47:21.194Z,95.90
2024-03-12T19:49:21.593Z,96.00
2024-03-12T19:51:21.891Z,96.00
2024-03-12T19:53:22.232Z,96.00
2024-03-12T19:55:22.631Z,96.00
2024-03-12T19:57:23.050Z,96.00
2024-03-12T19:59:23.403Z,96.00
2024-03-12T20:01:25.407Z,96.00
2024-03-12T20:03:27.714Z,96.11
2024-03-12T20:05:28.038Z,96.11
2024-03-12T20:07:28.441Z,96.11
2024-03-12T20:09:28.719Z,96.11
2024-03-12T20:11:29.112Z,96.11
2024-03-12T20:13:29.575Z,96.21
2024-03-12T20:15:29.911Z,96.21
2024-03-12T20:17:30.232Z,96.31
2024-03-12T20:20:13.821Z,96.31
2024-03-12T20:22:14.279Z,96.31
2024-03-12T20:24:14.628Z,96.31
2024-03-12T20:26:14.950Z,96.42
2024-03-12T20:28:15.487Z,96.31
2024-03-12T20:30:15.895Z,96.42
2024-03-12T20:32:16.460Z,96.42
2024-03-12T20:34:16.938Z,96.42
2024-03-12T20:36:17.393Z,96.42
2024-03-12T20:38:17.741Z,96.52
2024-03-12T20:40:18.888Z,96.52
2024-03-12T20:42:19.295Z,96.52
2024-03-12T20:44:19.679Z,96.52
2024-03-12T20:46:19.995Z,96.52
2024-03-12T20:48:20.381Z,96.52
2024-03-12T20:50:20.662Z,96.62
2024-03-12T20:52:21.759Z,96.62
2024-03-12T20:54:23.877Z,96.62
2024-03-12T20:56:24.193Z,96.62
2024-03-12T20:58:24.695Z,96.62
2024-03-12T21:00:25.353Z,96.62
2024-03-12T21:02:25.767Z,96.67
2024-03-12T21:06:38.002Z,96.72
2024-03-12T21:09:22.717Z,96.72
2024-03-12T21:11:23.009Z,96.77
2024-03-12T21:14:34.710Z,96.72
2024-03-12T21:16:39.842Z,96.72
2024-03-12T21:20:40.997Z,96.72
2024-03-12T21:22:41.541Z,96.77
2024-03-12T21:24:42.035Z,96.77
2024-03-12T21:26:42.584Z,96.72
2024-03-12T21:28:43.565Z,96.77
2024-03-12T21:30:43.865Z,96.72
2024-03-12T21:32:44.205Z,96.77
2024-03-12T21:34:44.464Z,96.77
2024-03-12T21:36:45.308Z,96.77
2024-03-12T21:38:45.643Z,96.88
2024-03-12T21:40:45.892Z,96.77
2024-03-12T21:42:46.220Z,96.77
2024-03-12T21:44:46.521Z,96.77
2024-03-12T21:46:46.802Z,96.88
2024-03-12T21:48:47.129Z,96.88
2024-03-12T21:50:47.499Z,96.88
2024-03-12T21:52:47.774Z,96.88
2024-03-12T21:54:48.265Z,96.88
2024-03-12T21:56:48.587Z,96.88
2024-03-12T21:58:49.027Z,96.77
2024-03-12T22:00:49.401Z,96.88
2024-03-12T22:02:50.272Z,96.88
2024-03-12T22:11:20.901Z,96.88
2024-03-12T22:13:28.426Z,96.88
2024-03-12T22:15:26.398Z,96.88
2024-03-12T22:17:26.795Z,96.88
2024-03-12T22:19:27.070Z,96.88
2024-03-12T22:21:27.504Z,96.88
2024-03-12T22:23:27.848Z,96.88
2024-03-12T22:25:28.244Z,96.88
2024-03-12T22:27:28.561Z,96.88
2024-03-12T22:29:28.957Z,96.88
2024-03-12T22:31:29.300Z,96.92
2024-03-12T22:33:29.633Z,96.92
2024-03-12T22:35:29.950Z,96.92
2024-03-12T22:37:30.386Z,96.92
2024-03-12T22:39:30.671Z,96.92
2024-03-12T22:41:30.980Z,96.92
2024-03-12T22:43:31.427Z,96.92
2024-03-12T22:45:31.683Z,96.92
2024-03-12T22:47:32.143Z,96.92
2024-03-12T22:49:32.420Z,96.92
2024-03-12T22:51:32.734Z,96.81
2024-03-12T22:53:33.334Z,96.92
2024-03-12T22:55:33.830Z,96.92
2024-03-12T22:57:34.109Z,96.92
2024-03-12T22:59:34.426Z,96.92
2024-03-12T23:01:34.875Z,96.81
2024-03-12T23:03:35.252Z,96.92
2024-03-12T23:05:35.780Z,96.92
2024-03-12T23:07:36.075Z,96.92
2024-03-12T23:09:36.384Z,96.92
2024-03-12T23:11:36.757Z,96.92
2024-03-12T23:13:37.068Z,96.92
2024-03-12T23:15:37.357Z,96.81
2024-03-12T23:17:37.821Z,96.81
2024-03-12T23:19:38.115Z,96.81
2024-03-12T23:21:38.413Z,96.81
2024-03-12T23:23:38.694Z,96.81
2024-03-12T23:25:39.182Z,96.92
2024-03-12T23:27:39.463Z,96.81
2024-03-12T23:29:39.725Z,96.81
2024-03-12T23:32:25.895Z,96.81
2024-03-12T23:34:26.476Z,96.81
2024-03-12T23:40:43.029Z,96.81
2024-03-12T23:47:22.853Z,96.81
2024-03-12T23:49:23.260Z,96.81
2024-03-12T23:54:04.074Z,96.71
2024-03-12T23:56:04.352Z,96.81
2024-03-12T23:58:04.746Z,96.71
